Time;durP1;ratioP1;P1;durP2;ratioP2;P2;SDS_P1;SDS_P2;PMS_P1;PMS_P2;Temp;Humidity;BMP_temperature;BMP_pressure;BME280_temperature;BME280_humidity;BME280_pressure;Samples;Min_cycle;Max_cycle;Signal;HPM_P1;HPM_P2
2023/12/29 00:01:53;;;;;;;;;;;;;;;9.96;83.79;100732.00;4880973;29;20005;-88
2023/12/29 00:04:19;;;;;;;;;;;;;;;9.99;83.63;100726.75;4907268;29;20359;-89
2023/12/29 00:06:44;;;;;;;;;;;;;;;10.00;83.42;100726.69;4904722;29;19923;-89
2023/12/29 00:09:09;;;;;;;;;;;;;;;9.98;83.56;100719.84;4904967;29;19918;-88
2023/12/29 00:11:34;;;;;;;;;;;;;;;9.99;83.59;100705.94;4905514;29;19922;-89
2023/12/29 00:13:59;;;;;;;;;;;;;;;10.00;83.75;100712.84;4905461;29;20344;-88
2023/12/29 00:16:26;;;;;;;;;;;;;;;10.07;83.13;100735.22;4899588;29;19918;-89
2023/12/29 00:18:52;;;;;;;;;;;;;;;10.02;83.50;100727.50;4903721;29;20017;-89
2023/12/29 00:21:17;;;;;;;;;;;;;;;10.00;83.43;100716.28;4905662;29;20026;-89
2023/12/29 00:23:42;;;;;;;;;;;;;;;10.03;83.39;100707.59;4905584;29;20017;-90
2023/12/29 00:26:07;;;;;;;;;;;;;;;10.01;83.67;100712.81;4886508;29;19938;-89
2023/12/29 00:28:33;;;;;;;;;;;;;;;10.00;83.95;100715.47;4902936;29;20134;-89
2023/12/29 00:30:58;;;;;;;;;;;;;;;10.01;84.88;100717.16;4907146;29;19938;-89
2023/12/29 00:33:24;;;;;;;;;;;;;;;9.94;85.45;100711.28;4900815;29;19986;-89
2023/12/29 00:35:49;;;;;;;;;;;;;;;9.94;86.18;100693.09;4904079;29;19919;-89
2023/12/29 00:38:15;;;;;;;;;;;;;;;9.95;86.65;100704.31;4899763;29;19970;-89
2023/12/29 00:40:40;;;;;;;;;;;;;;;9.91;86.48;100706.16;4887147;29;19923;-89
2023/12/29 00:43:05;;;;;;;;;;;;;;;9.89;86.58;100702.72;4898249;29;19915;-89
2023/12/29 00:45:33;;;;;;;;;;;;;;;9.87;86.65;100687.19;4888167;29;19926;-90
2023/12/29 00:47:59;;;;;;;;;;;;;;;9.85;86.53;100683.78;4902723;29;19915;-89
2023/12/29 00:50:24;;;;;;;;;;;;;;;9.83;86.66;100682.09;4897823;29;19916;-88
2023/12/29 00:52:49;;;;;;;;;;;;;;;9.91;86.58;100674.09;4902324;29;19994;-90
2023/12/29 00:55:15;;;;;;;;;;;;;;;9.80;87.23;100698.63;4900396;29;19915;-90
2023/12/29 00:57:40;;;;;;;;;;;;;;;9.84;87.65;100683.78;4899588;29;19915;-89
2023/12/29 01:00:07;;;;;;;;;;;;;;;9.80;88.31;100690.81;4901583;29;20010;-90
2023/12/29 01:02:32;;;;;;;;;;;;;;;9.81;88.90;100689.94;4897440;29;19915;-90
2023/12/29 01:04:57;;;;;;;;;;;;;;;9.77;89.09;100684.84;4901054;29;19927;-89
2023/12/29 01:07:22;;;;;;;;;;;;;;;9.66;89.94;100685.97;4899509;29;19922;-89
2023/12/29 01:09:48;;;;;;;;;;;;;;;9.62;90.63;100684.34;4882029;29;19915;-90
2023/12/29 01:12:14;;;;;;;;;;;;;;;9.57;90.88;100684.44;4898048;29;19923;-89
2023/12/29 01:14:40;;;;;;;;;;;;;;;9.53;91.44;100688.03;4881679;29;19916;-88
2023/12/29 01:17:05;;;;;;;;;;;;;;;9.57;91.24;100679.25;4902358;29;19922;-89
2023/12/29 01:19:31;;;;;;;;;;;;;;;9.49;91.78;100675.13;4901220;29;19915;-91
2023/12/29 01:21:56;;;;;;;;;;;;;;;9.48;92.38;100689.88;4902148;29;19929;-89
2023/12/29 01:24:21;;;;;;;;;;;;;;;9.40;92.92;100686.56;4901591;29;19969;-89
2023/12/29 01:26:46;;;;;;;;;;;;;;;9.37;94.32;100692.72;4903224;29;19919;-88
2023/12/29 01:29:11;;;;;;;;;;;;;;;9.35;95.53;100706.63;4903459;29;19922;-91
2023/12/29 01:31:37;;;;;;;;;;;;;;;9.24;96.08;100701.66;4898948;29;19919;-89
2023/12/29 01:34:02;;;;;;;;;;;;;;;9.19;97.18;100694.00;4900214;29;19986;-89
2023/12/29 01:36:27;;;;;;;;;;;;;;;9.14;97.96;100684.63;4889965;29;19911;-90
2023/12/29 01:38:52;;;;;;;;;;;;;;;9.03;98.59;100683.09;4920812;29;19927;-91
2023/12/29 01:41:21;;;;;;;;;;;;;;;9.01;99.57;100689.22;4909447;29;19915;-91
2023/12/29 01:43:58;;;;;;;;;;;;;;;9.00;100.00;100666.75;4909500;29;19919;-90
2023/12/29 01:46:25;;;;;;;;;;;;;;;8.95;100.00;100680.66;4885287;29;19969;-90
2023/12/29 01:48:50;;;;;;;;;;;;;;;8.86;100.00;100675.69;4899733;29;19923;-89
2023/12/29 01:51:17;;;;;;;;;;;;;;;8.81;100.00;100678.34;4897842;29;20284;-90
2023/12/29 01:53:42;;;;;;;;;;;;;;;8.78;100.00;100660.28;4918087;29;19919;-91
2023/12/29 01:56:08;;;;;;;;;;;;;;;8.80;100.00;100670.63;4881446;29;19971;-90
2023/12/29 01:58:33;;;;;;;;;;;;;;;8.81;100.00;100682.69;4887559;29;19931;-90
2023/12/29 02:01:00;;;;;;;;;;;;;;;8.74;100.00;100670.72;4899345;29;19916;-90
2023/12/29 02:03:25;;;;;;;;;;;;;;;8.68;100.00;100658.75;4899745;29;20069;-90
2023/12/29 02:05:53;;;;;;;;;;;;;;;8.64;100.00;100662.28;4909822;29;20368;-88
2023/12/29 02:08:18;;;;;;;;;;;;;;;8.62;100.00;100662.31;4900486;29;19973;-89
2023/12/29 02:10:44;;;;;;;;;;;;;;;8.64;100.00;100668.34;4898441;29;20343;-90
2023/12/29 02:13:09;;;;;;;;;;;;;;;8.61;100.00;100665.81;4894353;29;20010;-90
2023/12/29 02:15:34;;;;;;;;;;;;;;;8.63;100.00;100674.41;4880151;29;19997;-89
2023/12/29 02:18:01;;;;;;;;;;;;;;;8.60;100.00;100669.28;4901610;29;19915;-89
2023/12/29 02:20:27;;;;;;;;;;;;;;;8.60;100.00;100674.47;4896379;29;19954;-88
2023/12/29 02:22:52;;;;;;;;;;;;;;;8.63;100.00;100673.53;4897237;29;19945;-91
2023/12/29 02:25:17;;;;;;;;;;;;;;;8.65;100.00;100671.78;4894663;29;19919;-89
2023/12/29 02:27:58;;;;;;;;;;;;;;;8.65;100.00;100670.06;4900553;29;19916;-90
2023/12/29 02:30:26;;;;;;;;;;;;;;;8.70;100.00;100677.72;4880552;29;19915;-89
2023/12/29 02:32:54;;;;;;;;;;;;;;;8.71;100.00;100674.25;4894932;29;19916;-90
2023/12/29 02:35:24;;;;;;;;;;;;;;;8.75;100.00;100669.84;4884832;29;20331;-89
2023/12/29 02:37:49;;;;;;;;;;;;;;;8.89;100.00;100670.41;4897645;29;19916;-90
2023/12/29 02:40:16;;;;;;;;;;;;;;;8.85;100.00;100662.72;4896806;29;19922;-89
2023/12/29 02:42:44;;;;;;;;;;;;;;;8.83;100.00;100648.94;4897216;29;19930;-90
2023/12/29 02:45:10;;;;;;;;;;;;;;;8.82;100.00;100642.91;4898249;29;19919;-90
2023/12/29 02:47:36;;;;;;;;;;;;;;;8.86;100.00;100665.31;4901940;29;20011;-90
2023/12/29 02:50:01;;;;;;;;;;;;;;;8.90;100.00;100661.75;4897854;29;20010;-90
2023/12/29 02:52:26;;;;;;;;;;;;;;;8.92;100.00;100661.72;4899367;29;19998;-90
2023/12/29 02:54:51;;;;;;;;;;;;;;;8.94;100.00;100665.97;4898972;29;19927;-90
2023/12/29 02:57:17;;;;;;;;;;;;;;;8.94;99.41;100658.19;4901689;29;19942;-89
2023/12/29 02:59:42;;;;;;;;;;;;;;;9.02;98.91;100670.16;4903663;29;20001;-89
2023/12/29 03:02:07;;;;;;;;;;;;;;;9.13;97.74;100668.16;4896671;29;19923;-90
2023/12/29 03:04:32;;;;;;;;;;;;;;;9.09;97.78;100658.75;4896323;29;19919;-89
2023/12/29 03:06:57;;;;;;;;;;;;;;;9.08;97.74;100657.03;4886895;29;19922;-90
2023/12/29 03:09:23;;;;;;;;;;;;;;;9.06;97.69;100657.06;4905582;29;19915;-89
2023/12/29 03:11:48;;;;;;;;;;;;;;;9.10;97.55;100663.03;4898772;29;19916;-89
2023/12/29 03:14:14;;;;;;;;;;;;;;;9.09;97.02;100659.59;4899368;29;20018;-90
2023/12/29 03:16:40;;;;;;;;;;;;;;;9.17;96.66;100654.25;4898411;29;19922;-90
2023/12/29 03:19:05;;;;;;;;;;;;;;;9.20;95.86;100650.72;4895676;29;19950;-88
2023/12/29 03:21:30;;;;;;;;;;;;;;;9.16;96.20;100644.75;4899861;29;20328;-89
2023/12/29 03:23:55;;;;;;;;;;;;;;;9.16;96.19;100652.53;4894507;29;19919;-88
2023/12/29 03:26:20;;;;;;;;;;;;;;;9.18;95.83;100650.75;4900557;29;19915;-89
2023/12/29 03:28:46;;;;;;;;;;;;;;;9.21;95.72;100655.00;4896339;29;19939;-90
2023/12/29 03:31:11;;;;;;;;;;;;;;;9.23;95.20;100648.88;4900357;29;19923;-90
2023/12/29 03:33:36;;;;;;;;;;;;;;;9.18;95.18;100642.09;4898055;29;20185;-90
2023/12/29 03:36:01;;;;;;;;;;;;;;;9.22;95.06;100649.78;4897652;29;19951;-89
2023/12/29 03:38:27;;;;;;;;;;;;;;;9.19;94.90;100647.28;4887282;29;19919;-90
2023/12/29 03:40:52;;;;;;;;;;;;;;;9.18;94.76;100644.69;4899810;29;19923;-91
2023/12/29 03:43:17;;;;;;;;;;;;;;;9.19;94.10;100652.47;4898475;29;19919;-90
2023/12/29 03:45:42;;;;;;;;;;;;;;;9.18;93.74;100649.88;4903832;29;19923;-89
2023/12/29 03:48:08;;;;;;;;;;;;;;;9.19;93.31;100642.09;4902070;29;19950;-88
2023/12/29 03:50:34;;;;;;;;;;;;;;;9.17;93.79;100643.84;4904548;29;19939;-90
2023/12/29 03:52:59;;;;;;;;;;;;;;;9.19;93.61;100641.22;4914558;29;19923;-89
2023/12/29 03:55:24;;;;;;;;;;;;;;;9.22;93.22;100644.59;4908006;29;19915;-89
2023/12/29 03:57:49;;;;;;;;;;;;;;;9.26;92.83;100642.78;4906843;29;20014;-89
2023/12/29 04:00:15;;;;;;;;;;;;;;;9.26;92.83;100632.41;4909225;29;19915;-89
2023/12/29 04:02:40;;;;;;;;;;;;;;;9.24;92.93;100634.19;4880809;29;19923;-89
2023/12/29 04:05:08;;;;;;;;;;;;;;;9.23;92.99;100654.06;4902220;29;19926;-88
2023/12/29 04:07:34;;;;;;;;;;;;;;;9.25;92.68;100638.50;4900739;29;20371;-89
2023/12/29 04:09:59;;;;;;;;;;;;;;;9.25;92.70;100630.69;4882763;29;19915;-89
2023/12/29 04:12:24;;;;;;;;;;;;;;;9.32;92.16;100639.19;4904613;29;19927;-89
2023/12/29 04:14:49;;;;;;;;;;;;;;;9.30;92.30;100638.38;4897212;29;19963;-90
2023/12/29 04:17:14;;;;;;;;;;;;;;;9.33;91.78;100625.31;4906672;29;19914;-89
2023/12/29 04:19:40;;;;;;;;;;;;;;;9.30;91.71;100631.44;4897147;29;19975;-90
2023/12/29 04:22:07;;;;;;;;;;;;;;;9.23;91.89;100628.13;4900600;29;19919;-89
2023/12/29 04:24:32;;;;;;;;;;;;;;;9.27;91.94;100628.94;4900558;29;19919;-90
2023/12/29 04:26:57;;;;;;;;;;;;;;;9.26;91.40;100625.47;4905159;29;19919;-89
2023/12/29 04:29:22;;;;;;;;;;;;;;;9.26;91.56;100638.44;4904227;29;19915;-87
2023/12/29 04:31:47;;;;;;;;;;;;;;;9.31;91.22;100635.72;4904009;29;20316;-88
2023/12/29 04:34:13;;;;;;;;;;;;;;;9.32;90.95;100640.03;4902966;29;20538;-90
2023/12/29 04:36:38;;;;;;;;;;;;;;;9.24;91.16;100635.03;4886000;29;19975;-89
2023/12/29 04:39:03;;;;;;;;;;;;;;;9.23;91.27;100632.47;4888505;29;19986;-90
2023/12/29 04:41:28;;;;;;;;;;;;;;;9.21;91.15;100636.84;4908156;29;19915;-90
2023/12/29 04:43:53;;;;;;;;;;;;;;;9.19;91.39;100642.09;4905291;29;19947;-89
2023/12/29 04:46:19;;;;;;;;;;;;;;;9.22;91.07;100641.16;4898653;29;20042;-90
2023/12/29 04:48:44;;;;;;;;;;;;;;;9.23;90.58;100635.91;4886543;29;19955;-89
2023/12/29 04:51:09;;;;;;;;;;;;;;;9.23;90.76;100643.69;4901175;29;19979;-90
2023/12/29 04:53:34;;;;;;;;;;;;;;;9.18;90.70;100640.38;4898303;29;20018;-91
2023/12/29 04:55:59;;;;;;;;;;;;;;;9.17;90.90;100641.25;4899410;29;20001;-89
2023/12/29 04:58:25;;;;;;;;;;;;;;;9.19;90.50;100651.59;4901696;29;19922;-90
2023/12/29 05:00:50;;;;;;;;;;;;;;;9.18;90.65;100655.94;4897639;29;19915;-90
2023/12/29 05:03:15;;;;;;;;;;;;;;;9.17;90.72;100649.06;4896610;29;20335;-89
2023/12/29 05:05:40;;;;;;;;;;;;;;;9.16;90.57;100647.34;4903996;29;20703;-89
2023/12/29 05:08:06;;;;;;;;;;;;;;;9.19;90.61;100652.47;4883850;29;20428;-89
2023/12/29 05:10:34;;;;;;;;;;;;;;;9.21;90.08;100650.69;4903077;29;19915;-90
2023/12/29 05:12:59;;;;;;;;;;;;;;;9.18;90.21;100660.28;4909610;29;19927;-90
2023/12/29 05:15:24;;;;;;;;;;;;;;;9.18;89.93;100658.53;4897466;29;19930;-89
2023/12/29 05:17:50;;;;;;;;;;;;;;;9.17;90.33;100659.44;4902508;29;19915;-89
2023/12/29 05:20:15;;;;;;;;;;;;;;;9.15;90.27;100661.19;4904905;29;19923;-90
2023/12/29 05:22:40;;;;;;;;;;;;;;;9.14;90.51;100656.06;4916129;28;19970;-89
2023/12/29 05:25:06;;;;;;;;;;;;;;;9.12;90.42;100653.47;4903652;29;19954;-90
2023/12/29 05:27:31;;;;;;;;;;;;;;;9.15;90.63;100652.56;4885481;29;19915;-89
2023/12/29 05:29:56;;;;;;;;;;;;;;;9.15;90.15;100645.63;4904612;29;21952;-91
2023/12/29 05:32:22;;;;;;;;;;;;;;;9.15;90.37;100658.59;4898361;29;19916;-88
2023/12/29 05:34:47;;;;;;;;;;;;;;;9.14;90.60;100659.50;4899224;29;20614;-90
2023/12/29 05:37:12;;;;;;;;;;;;;;;9.18;90.32;100661.13;4902654;29;19991;-91
2023/12/29 05:39:37;;;;;;;;;;;;;;;9.17;90.66;100648.19;4901024;29;19931;-89
2023/12/29 05:42:03;;;;;;;;;;;;;;;9.17;90.49;100637.78;4897108;29;19979;-90
2023/12/29 05:44:28;;;;;;;;;;;;;;;9.18;90.56;100648.16;4879012;29;20411;-89
2023/12/29 05:46:54;;;;;;;;;;;;;;;9.15;90.70;100640.44;4898945;29;19923;-91
2023/12/29 05:49:23;;;;;;;;;;;;;;;9.11;90.75;100652.66;4883151;29;19955;-89
2023/12/29 05:51:49;;;;;;;;;;;;;;;9.10;90.96;100652.66;4903404;29;20249;-89
2023/12/29 05:54:14;;;;;;;;;;;;;;;9.13;90.91;100643.97;4902519;29;20430;-89
2023/12/29 05:56:39;;;;;;;;;;;;;;;9.07;91.23;100647.53;4904217;29;19915;-88
2023/12/29 05:59:04;;;;;;;;;;;;;;;9.04;91.43;100639.84;4896831;29;19916;-90
2023/12/29 06:01:30;;;;;;;;;;;;;;;9.06;91.54;100651.00;4878539;29;19916;-89
2023/12/29 06:03:55;;;;;;;;;;;;;;;9.00;91.58;100641.63;4880359;29;20371;-89
2023/12/29 06:06:20;;;;;;;;;;;;;;;9.00;91.94;100646.81;4905298;29;19915;-89
2023/12/29 06:08:45;;;;;;;;;;;;;;;9.05;92.25;100646.75;4901698;29;20415;-89
2023/12/29 06:11:14;;;;;;;;;;;;;;;9.02;92.17;100645.06;4900500;29;19975;-90
2023/12/29 06:13:39;;;;;;;;;;;;;;;9.08;92.31;100649.25;4883073;29;19978;-92
2023/12/29 06:16:05;;;;;;;;;;;;;;;9.05;92.42;100650.19;4878601;29;20387;-89
2023/12/29 06:18:30;;;;;;;;;;;;;;;9.08;92.30;100650.13;4884981;29;20379;-89
2023/12/29 06:20:55;;;;;;;;;;;;;;;9.09;92.79;100653.53;4883232;29;19915;-90
2023/12/29 06:23:20;;;;;;;;;;;;;;;9.14;93.44;100664.69;4877448;29;20031;-90
2023/12/29 06:25:46;;;;;;;;;;;;;;;9.08;94.33;100650.13;4902672;29;19927;-89
2023/12/29 06:28:11;;;;;;;;;;;;;;;9.04;94.93;100647.63;4895644;29;19915;-89
2023/12/29 06:30:36;;;;;;;;;;;;;;;9.01;95.49;100637.31;4879736;29;19923;-89
2023/12/29 06:33:01;;;;;;;;;;;;;;;8.97;95.70;100636.50;4899206;29;19942;-89
2023/12/29 06:35:27;;;;;;;;;;;;;;;9.00;96.00;100641.63;4894783;29;19923;-90
2023/12/29 06:37:52;;;;;;;;;;;;;;;8.99;95.91;100646.88;4887647;29;19915;-90
2023/12/29 06:40:17;;;;;;;;;;;;;;;8.96;95.74;100646.03;4895036;29;19925;-89
2023/12/29 06:42:42;;;;;;;;;;;;;;;8.98;95.96;100633.03;4898583;29;19998;-90
2023/12/29 06:45:08;;;;;;;;;;;;;;;8.99;95.58;100649.47;4895783;29;19923;-89
2023/12/29 06:47:33;;;;;;;;;;;;;;;9.02;95.64;100642.44;4898585;29;19954;-88
2023/12/29 06:49:58;;;;;;;;;;;;;;;8.99;95.84;100639.09;4902616;29;20015;-90
2023/12/29 06:52:24;;;;;;;;;;;;;;;9.03;95.85;100651.09;4900775;29;19922;-89
2023/12/29 06:54:49;;;;;;;;;;;;;;;9.05;95.71;100633.75;4896052;29;20287;-90
2023/12/29 06:57:16;;;;;;;;;;;;;;;9.12;95.65;100645.69;4906522;29;20347;-89
2023/12/29 06:59:41;;;;;;;;;;;;;;;9.08;96.03;100639.72;4899505;29;19971;-89
2023/12/29 07:02:07;;;;;;;;;;;;;;;9.10;96.08;100632.78;4899909;29;19915;-90
2023/12/29 07:04:32;;;;;;;;;;;;;;;9.06;96.30;100631.13;4898257;29;19915;-90
2023/12/29 07:07:00;;;;;;;;;;;;;;;9.08;96.18;100638.88;4903023;29;19946;-88
2023/12/29 07:09:25;;;;;;;;;;;;;;;9.14;96.11;100638.72;4899027;29;19923;-89
2023/12/29 07:11:50;;;;;;;;;;;;;;;9.11;96.09;100633.59;4883764;29;19951;-88
2023/12/29 07:14:15;;;;;;;;;;;;;;;9.10;96.30;100631.91;4904053;29;19993;-89
2023/12/29 07:16:41;;;;;;;;;;;;;;;9.10;96.28;100621.53;4903368;29;19921;-90
2023/12/29 07:19:06;;;;;;;;;;;;;;;9.07;96.79;100625.06;4901071;29;19962;-90
2023/12/29 07:21:31;;;;;;;;;;;;;;;9.12;96.63;100622.34;4894739;29;19915;-89
2023/12/29 07:23:56;;;;;;;;;;;;;;;9.09;96.71;100614.63;4905804;29;19923;-90
2023/12/29 07:26:22;;;;;;;;;;;;;;;9.04;97.05;100614.72;4896723;29;19974;-89
2023/12/29 07:28:47;;;;;;;;;;;;;;;9.06;97.25;100610.38;4896177;29;19919;-89
2023/12/29 07:31:12;;;;;;;;;;;;;;;9.14;97.28;100638.72;4901997;29;20275;-90
2023/12/29 07:33:37;;;;;;;;;;;;;;;9.10;97.61;100637.09;4897816;29;19959;-90
2023/12/29 07:36:03;;;;;;;;;;;;;;;9.13;97.61;100631.00;4893189;29;19951;-90
2023/12/29 07:38:28;;;;;;;;;;;;;;;9.14;97.75;100620.56;4896512;29;20019;-89
2023/12/29 07:40:53;;;;;;;;;;;;;;;9.11;97.85;100618.91;4895249;29;19923;-89
2023/12/29 07:43:42;;;;;;;;;;;;;;;9.09;98.29;100619.81;4898113;29;19941;-90
2023/12/29 07:46:07;;;;;;;;;;;;;;;9.07;98.00;100622.44;4899984;29;20352;-91
2023/12/29 07:48:32;;;;;;;;;;;;;;;9.13;97.79;100620.63;4883166;29;19964;-90
2023/12/29 07:51:03;;;;;;;;;;;;;;;9.11;97.78;100608.53;4901059;29;19919;-89
2023/12/29 07:53:28;;;;;;;;;;;;;;;9.16;97.56;100608.41;4900733;29;20382;-91
2023/12/29 07:55:54;;;;;;;;;;;;;;;9.13;97.82;100626.63;4882119;29;19923;-91
2023/12/29 07:58:20;;;;;;;;;;;;;;;9.19;97.47;100612.66;4883663;29;19915;-91
2023/12/29 08:00:45;;;;;;;;;;;;;;;9.17;97.74;100633.47;4895623;29;21457;-89
2023/12/29 08:03:11;;;;;;;;;;;;;;;9.18;97.50;100619.63;4894555;29;20006;-89
2023/12/29 08:05:36;;;;;;;;;;;;;;;9.26;97.47;100627.22;4879921;29;19931;-88
2023/12/29 08:08:01;;;;;;;;;;;;;;;9.22;97.79;100646.34;4901908;29;20276;-91
2023/12/29 08:10:26;;;;;;;;;;;;;;;9.22;97.91;100641.16;4899048;29;20268;-89
2023/12/29 08:12:52;;;;;;;;;;;;;;;9.24;98.01;100645.41;4897372;29;19916;-88
2023/12/29 08:15:17;;;;;;;;;;;;;;;9.25;98.25;100634.13;4881845;29;19923;-90
2023/12/29 08:17:42;;;;;;;;;;;;;;;9.27;98.20;100637.56;4895101;29;19915;-90
2023/12/29 08:20:08;;;;;;;;;;;;;;;9.31;98.09;100624.50;4897247;29;19919;-89
2023/12/29 08:22:33;;;;;;;;;;;;;;;9.32;97.88;100626.22;4895375;29;19922;-91
2023/12/29 08:24:59;;;;;;;;;;;;;;;9.34;97.96;100629.63;4884741;29;19958;-91
2023/12/29 08:27:27;;;;;;;;;;;;;;;9.23;98.25;100622.94;4886736;29;19923;-91
2023/12/29 08:29:53;;;;;;;;;;;;;;;9.26;98.15;100627.22;4890308;29;19943;-88
2023/12/29 08:32:19;;;;;;;;;;;;;;;9.24;98.16;100624.63;4895042;29;19927;-89
2023/12/29 08:34:44;;;;;;;;;;;;;;;9.19;98.50;100630.84;4904826;29;20032;-91
2023/12/29 08:37:09;;;;;;;;;;;;;;;9.22;98.72;100641.16;4903578;29;19919;-90
2023/12/29 08:39:34;;;;;;;;;;;;;;;9.20;98.48;100630.81;4899878;29;19926;-89
2023/12/29 08:41:59;;;;;;;;;;;;;;;9.19;98.68;100626.50;4883783;29;19915;-89
2023/12/29 08:44:25;;;;;;;;;;;;;;;9.27;98.26;100640.16;4898349;29;19919;-92
2023/12/29 08:46:51;;;;;;;;;;;;;;;9.27;98.11;100637.56;4898530;29;19984;-90
2023/12/29 08:49:16;;;;;;;;;;;;;;;9.22;98.51;100635.97;4899104;29;20379;-91
2023/12/29 08:51:41;;;;;;;;;;;;;;;9.26;98.52;100647.97;4899056;29;20334;-91
2023/12/29 08:54:06;;;;;;;;;;;;;;;9.22;98.56;100641.16;4897171;29;20002;-91
2023/12/29 08:56:32;;;;;;;;;;;;;;;9.21;98.88;100653.28;4895802;29;19923;-91
2023/12/29 08:58:57;;;;;;;;;;;;;;;9.23;98.75;100661.88;4900733;29;19942;-90
2023/12/29 09:01:22;;;;;;;;;;;;;;;9.21;98.88;100661.06;4898377;29;20106;-90
2023/12/29 09:03:47;;;;;;;;;;;;;;;9.28;98.80;100656.59;4897501;29;19919;-90
2023/12/29 09:06:13;;;;;;;;;;;;;;;9.29;98.51;100660.91;4881808;29;19928;-91
2023/12/29 09:08:39;;;;;;;;;;;;;;;9.31;98.62;100666.03;4898825;29;19979;-90
2023/12/29 09:11:04;;;;;;;;;;;;;;;9.32;98.42;100658.19;4898309;29;19993;-89
2023/12/29 09:13:29;;;;;;;;;;;;;;;9.34;98.57;100653.00;4899526;29;20014;-89
2023/12/29 09:15:55;;;;;;;;;;;;;;;9.30;98.77;100653.94;4881627;29;20387;-90
2023/12/29 09:18:20;;;;;;;;;;;;;;;9.29;98.87;100658.31;4911242;29;20367;-89
2023/12/29 09:20:45;;;;;;;;;;;;;;;9.32;98.87;100672.94;4896985;29;19915;-89
2023/12/29 09:23:10;;;;;;;;;;;;;;;9.29;98.49;100667.81;4896139;29;19922;-90
2023/12/29 09:25:36;;;;;;;;;;;;;;;9.33;98.78;100669.47;4876270;29;19922;-90
2023/12/29 09:28:01;;;;;;;;;;;;;;;9.27;99.62;100666.09;4895559;29;19919;-89
2023/12/29 09:30:26;;;;;;;;;;;;;;;9.20;99.93;100669.75;4894684;29;19915;-90
2023/12/29 09:32:52;;;;;;;;;;;;;;;9.19;100.00;100674.97;4898100;29;20512;-89
2023/12/29 09:35:17;;;;;;;;;;;;;;;9.16;100.00;100673.28;4879979;29;19924;-90
2023/12/29 09:37:42;;;;;;;;;;;;;;;9.21;100.00;100683.56;4889471;29;19919;-89
2023/12/29 09:40:09;;;;;;;;;;;;;;;9.20;100.00;100677.53;4893187;29;20006;-88
2023/12/29 09:42:35;;;;;;;;;;;;;;;9.25;100.00;100686.06;4894988;29;19931;-90
2023/12/29 09:45:02;;;;;;;;;;;;;;;9.25;100.00;100683.44;4884107;29;19979;-89
2023/12/29 09:47:28;;;;;;;;;;;;;;;9.30;100.00;100685.97;4878192;29;19920;-89
2023/12/29 09:49:53;;;;;;;;;;;;;;;9.26;100.00;100685.16;4877831;29;19915;-89
2023/12/29 09:52:20;;;;;;;;;;;;;;;9.24;100.00;100681.75;4886052;29;20009;-88
2023/12/29 09:54:45;;;;;;;;;;;;;;;9.23;100.00;100680.03;4877082;29;19944;-87
2023/12/29 09:57:11;;;;;;;;;;;;;;;9.27;100.00;100676.50;4898002;29;19915;-87
2023/12/29 09:59:38;;;;;;;;;;;;;;;9.29;100.00;100683.38;4893818;29;19970;-87
2023/12/29 10:02:04;;;;;;;;;;;;;;;9.34;100.00;100691.94;4894814;29;19995;-86
2023/12/29 10:04:29;;;;;;;;;;;;;;;9.34;100.00;100685.00;4897746;29;19923;-90
2023/12/29 10:06:56;;;;;;;;;;;;;;;9.31;100.00;100697.19;4900665;29;19919;-89
2023/12/29 10:09:23;;;;;;;;;;;;;;;9.29;100.00;100694.66;4900503;29;19919;-89
2023/12/29 10:11:50;;;;;;;;;;;;;;;9.34;100.00;100684.16;4893875;29;19919;-90
2023/12/29 10:14:22;;;;;;;;;;;;;;;9.34;100.00;100691.94;4896349;29;19919;-87
2023/12/29 10:16:52;;;;;;;;;;;;;;;9.38;100.00;100688.38;4891219;29;19915;-88
2023/12/29 10:19:23;;;;;;;;;;;;;;;9.39;100.00;100692.69;4891617;29;20418;-88
2023/12/29 10:21:56;;;;;;;;;;;;;;;9.42;100.00;100692.59;4893383;29;19955;-89
2023/12/29 10:24:22;;;;;;;;;;;;;;;9.47;100.00;100698.53;4873594;29;19975;-88
2023/12/29 10:26:49;;;;;;;;;;;;;;;9.48;99.52;100700.25;4894744;29;19920;-88
2023/12/29 10:29:14;;;;;;;;;;;;;;;9.51;99.06;100704.50;4878033;29;19915;-87
2023/12/29 10:31:39;;;;;;;;;;;;;;;9.56;97.75;100703.50;4892177;29;19926;-87
2023/12/29 10:34:18;;;;;;;;;;;;;;;9.56;97.71;100703.50;4894495;29;19927;-87
2023/12/29 10:36:48;;;;;;;;;;;;;;;9.57;97.74;100715.59;4877922;29;19915;-89
2023/12/29 10:39:13;;;;;;;;;;;;;;;9.59;96.97;100731.16;4894507;29;19927;-89
2023/12/29 10:41:38;;;;;;;;;;;;;;;9.57;96.90;100720.78;4894304;29;19953;-89
2023/12/29 10:44:06;;;;;;;;;;;;;;;9.59;96.88;100732.91;4893579;29;19915;-87
2023/12/29 10:46:32;;;;;;;;;;;;;;;9.59;96.29;100732.91;4876802;29;19919;-87
2023/12/29 10:49:07;;;;;;;;;;;;;;;9.60;95.79;100734.59;4893933;29;19915;-88
2023/12/29 10:51:32;;;;;;;;;;;;;;;9.63;95.27;100729.34;4899937;29;19915;-87
2023/12/29 10:53:57;;;;;;;;;;;;;;;9.64;95.28;100731.94;4892160;29;20059;-88
2023/12/29 10:56:23;;;;;;;;;;;;;;;9.63;95.66;100726.75;4895923;29;19971;-88
2023/12/29 10:58:59;;;;;;;;;;;;;;;9.65;95.39;100717.19;4901283;29;20295;-89
2023/12/29 11:01:25;;;;;;;;;;;;;;;9.69;94.82;100718.81;4893415;29;19929;-90
2023/12/29 11:04:00;;;;;;;;;;;;;;;9.71;94.61;100714.44;4876852;29;20384;-88
2023/12/29 11:06:26;;;;;;;;;;;;;;;9.69;95.13;100716.22;4894925;29;19926;-90
2023/12/29 11:08:52;;;;;;;;;;;;;;;9.69;95.28;100708.44;4876421;29;19915;-87
2023/12/29 11:11:17;;;;;;;;;;;;;;;9.70;95.39;100710.13;4894212;29;19930;-88
2023/12/29 11:13:43;;;;;;;;;;;;;;;9.71;95.36;100704.06;4893582;29;19924;-88
2023/12/29 11:16:08;;;;;;;;;;;;;;;9.73;95.23;100702.28;4892442;29;19938;-88
2023/12/29 11:18:34;;;;;;;;;;;;;;;9.76;95.45;100699.56;4893954;29;19915;-88
2023/12/29 11:20:59;;;;;;;;;;;;;;;9.78;95.42;100712.53;4901539;29;20299;-88
2023/12/29 11:23:25;;;;;;;;;;;;;;;9.83;94.76;100711.53;4878308;29;20002;-89
2023/12/29 11:25:50;;;;;;;;;;;;;;;9.83;94.78;100701.16;4893973;29;19915;-89
2023/12/29 11:28:16;;;;;;;;;;;;;;;9.87;94.61;100697.59;4878658;29;19919;-89
2023/12/29 11:30:41;;;;;;;;;;;;;;;9.92;94.53;100704.38;4877265;29;19950;-90
2023/12/29 11:33:15;;;;;;;;;;;;;;;9.94;94.71;100697.41;4893775;29;19950;-89
2023/12/29 11:35:52;;;;;;;;;;;;;;;9.96;94.75;100695.63;4905190;29;19915;-90
2023/12/29 11:38:36;;;;;;;;;;;;;;;9.99;94.57;100703.34;4897353;29;19983;-89
2023/12/29 11:41:16;;;;;;;;;;;;;;;10.00;94.78;100698.09;4895008;29;19950;-92
2023/12/29 11:43:41;;;;;;;;;;;;;;;10.03;94.55;100702.38;4876991;29;19915;-91
2023/12/29 11:46:08;;;;;;;;;;;;;;;10.06;94.63;100691.06;4894359;29;20013;-91
2023/12/29 11:48:52;;;;;;;;;;;;;;;10.09;94.46;100697.00;4896612;29;20376;-89
2023/12/29 11:51:39;;;;;;;;;;;;;;;10.07;94.05;100698.81;4895380;29;20426;-90
2023/12/29 11:54:05;;;;;;;;;;;;;;;10.02;94.47;100691.13;4907855;29;20407;-91
2023/12/29 11:56:31;;;;;;;;;;;;;;;10.03;94.39;100698.03;4889173;29;19944;-90
2023/12/29 11:58:57;;;;;;;;;;;;;;;10.03;94.76;100702.38;4879516;29;19922;-89
2023/12/29 12:01:33;;;;;;;;;;;;;;;9.99;94.63;100701.59;4900341;29;19915;-88
2023/12/29 12:03:58;;;;;;;;;;;;;;;10.01;94.90;100688.56;4897743;29;19919;-88
2023/12/29 12:06:36;;;;;;;;;;;;;;;10.01;94.62;100683.38;4899808;29;19919;-88
2023/12/29 12:09:21;;;;;;;;;;;;;;;9.98;94.66;100680.84;4901104;29;20002;-87
2023/12/29 12:11:49;;;;;;;;;;;;;;;9.93;94.94;100690.50;4896889;29;19915;-89
2023/12/29 12:14:33;;;;;;;;;;;;;;;9.94;95.05;100690.47;4895905;29;19938;-91
2023/12/29 12:16:58;;;;;;;;;;;;;;;9.87;95.49;100679.41;4896929;29;19919;-89
2023/12/29 12:19:27;;;;;;;;;;;;;;;9.85;95.63;100677.72;4901108;29;19931;-89
2023/12/29 12:21:53;;;;;;;;;;;;;;;9.82;96.16;100678.66;4897985;29;19916;-88
2023/12/29 12:24:19;;;;;;;;;;;;;;;9.82;96.33;100681.25;4898776;29;19915;-89
2023/12/29 12:26:45;;;;;;;;;;;;;;;9.83;96.60;100677.75;4898178;29;19970;-88
2023/12/29 12:29:12;;;;;;;;;;;;;;;9.80;96.89;100675.22;4900592;29;19950;-88
2023/12/29 12:31:50;;;;;;;;;;;;;;;9.79;96.95;100673.53;4897543;29;20005;-91
2023/12/29 12:34:16;;;;;;;;;;;;;;;9.80;97.35;100664.84;4897728;29;20006;-90
2023/12/29 12:36:54;;;;;;;;;;;;;;;9.76;97.49;100657.16;4898434;29;20002;-90
2023/12/29 12:39:20;;;;;;;;;;;;;;;9.73;97.81;100658.13;4885848;29;19919;-90
2023/12/29 12:41:45;;;;;;;;;;;;;;;9.70;98.10;100655.59;4893769;29;19922;-90